This is the latest recevied weather packets stored in our database for station/object OK1TBM-13. If no packets are shown the sender has not sent any weather packets the latest 10 day(s).
| Time | Temp. | Humidity | Pressure | Rain* | Wind** | Luminosity | Snow |
|---|---|---|---|---|---|---|---|
| 1788089101 | 29.44° C | 40% | 1013.9 hPa | 0 mm | - | 857 W/m² | - |
| 1788088801 | 29.44° C | 41% | 1013.9 hPa | 0 mm | - | 778 W/m² | - |
| 1788088501 | 28.33° C | 43% | 1014.2 hPa | 0 mm | - | 788 W/m² | - |
| 1788088200 | 29.44° C | 41% | 1014.2 hPa | 0 mm | - | 765 W/m² | - |
| 1788087915 | 28.89° C | 42% | 1014.2 hPa | 0 mm | - | 763 W/m² | - |
| 1788087308 | 28.33° C | 45% | 1014.2 hPa | 0 mm | - | 739 W/m² | - |
| 1788087001 | 26.67° C | 45% | 1014.2 hPa | 0 mm | - | 736 W/m² | - |
| 1788086701 | 26.67° C | 46% | 1014.2 hPa | 0 mm | - | 735 W/m² | - |
| 1788086401 | 26.67° C | 46% | 1014.2 hPa | 0 mm | - | 728 W/m² | - |
| 1788086101 | 26.67° C | 45% | 1014.2 hPa | 0 mm | - | 725 W/m² | - |
| 1788085801 | 26.67° C | 45% | 1014.2 hPa | 0 mm | - | 722 W/m² | - |
| 1788085501 | 26.11° C | 47% | 1014.2 hPa | 0 mm | - | 717 W/m² | - |
| 1788085201 | 26.67° C | 46% | 1014.2 hPa | 0 mm | - | 716 W/m² | - |
| 1788084602 | 26.67° C | 46% | 1014.2 hPa | 0 mm | - | 706 W/m² | - |
| 1788084001 | 26.11° C | 47% | 1014.2 hPa | 0 mm | - | 689 W/m² | - |
| 1788083701 | 26.11° C | 47% | 1014.2 hPa | 0 mm | - | 686 W/m² | - |
| 1788083401 | 26.67° C | 46% | 1014.6 hPa | 0 mm | - | 677 W/m² | - |
| 1788082800 | 26.11° C | 48% | 1014.6 hPa | 0 mm | - | 662 W/m² | - |
| 1788082500 | 26.11° C | 48% | 1014.6 hPa | 0 mm | - | 657 W/m² | - |
| 1788082202 | 25.56° C | 49% | 1014.6 hPa | 0 mm | - | 658 W/m² | - |
| 1788081902 | 25.56° C | 49% | 1014.2 hPa | 0 mm | - | 456 W/m² | - |
| 1788081612 | 26.11° C | 49% | 1014.2 hPa | 0 mm | - | 510 W/m² | - |
| 1788081302 | 26.11° C | 49% | 1014.2 hPa | 0 mm | - | 737 W/m² | - |
| 1788080701 | 25.56° C | 49% | 1014.2 hPa | 0 mm | - | 711 W/m² | - |
| 1788080401 | 25.56° C | 51% | 1014.6 hPa | 0 mm | - | 298 W/m² | - |
* Rain latest hour (hover to see other rain measurements)
** Current wind speed in m/s (hover to see current wind gust speed)